Time;durP1;ratioP1;P1;durP2;ratioP2;P2;SDS_P1;SDS_P2;PMS_P1;PMS_P2;Temp;Humidity;BMP_temperature;BMP_pressure;BME280_temperature;BME280_humidity;BME280_pressure;Samples;Min_cycle;Max_cycle;Signal;HPM_P1;HPM_P2
2022/04/30 00:04:42;;;;;;;42.60;21.37;;;;;;;4.05;70.87;99880.01;4155252;84;21571;-84
2022/04/30 00:10:43;;;;;;;52.58;24.52;;;;;;;3.82;71.38;99881.13;4150187;84;21022;-85
2022/04/30 00:16:45;;;;;;;46.35;24.10;;;;;;;3.71;71.45;99889.83;4126785;84;21144;-84
2022/04/30 00:22:46;;;;;;;40.98;20.50;;;;;;;3.63;71.81;99891.37;4274929;82;21065;-84
2022/04/30 00:28:48;;;;;;;43.87;22.95;;;;;;;3.55;72.09;99891.29;4269153;82;22006;-84
2022/04/30 00:34:49;;;;;;;43.23;22.65;;;;;;;3.44;72.13;99889.39;4249617;82;21056;-84
2022/04/30 00:40:50;;;;;;;39.53;21.23;;;;;;;3.32;72.28;99888.33;4232797;82;21486;-84
2022/04/30 00:46:52;;;;;;;44.85;21.80;;;;;;;3.13;72.07;99883.06;4247888;81;21985;-84
2022/04/30 00:52:55;;;;;;;32.98;18.17;;;;;;;3.02;72.81;99880.34;4245324;82;21818;-83
2022/04/30 00:59:00;;;;;;;41.60;21.55;;;;;;;2.94;73.69;99880.48;4243606;82;21097;-84
2022/04/30 01:05:00;;;;;;;32.50;18.30;;;;;;;2.90;73.16;99881.39;4242306;82;20994;-83
2022/04/30 01:11:04;;;;;;;38.13;20.45;;;;;;;2.87;74.16;99876.59;4239374;82;21152;-83
2022/04/30 01:17:09;;;;;;;34.67;19.48;;;;;;;2.79;74.20;99882.16;4247996;82;20994;-84
2022/04/30 01:23:11;;;;;;;38.78;20.00;;;;;;;2.91;75.11;99878.95;4244063;82;21041;-84
2022/04/30 01:29:12;;;;;;;37.50;20.52;;;;;;;3.03;74.77;99875.98;4256706;82;21496;-83
2022/04/30 01:41:35;;;;;;;35.85;20.08;;;;;;;2.64;74.62;99873.03;4155986;84;21458;-83
2022/04/30 01:47:40;;;;;;;37.05;20.02;;;;;;;2.54;74.77;99873.77;4277053;81;21088;-83
2022/04/30 01:53:42;;;;;;;40.73;22.07;;;;;;;2.40;75.02;99878.37;4153977;84;21058;-84
2022/04/30 01:59:43;;;;;;;36.58;19.65;;;;;;;2.24;75.09;99873.81;4151910;84;21108;-84
2022/04/30 02:05:45;;;;;;;39.08;20.52;;;;;;;2.13;75.65;99864.29;4129062;84;21540;-84
2022/04/30 02:11:47;;;;;;;37.42;20.43;;;;;;;2.23;75.89;99860.60;4293044;81;21969;-84
2022/04/30 02:17:51;;;;;;;52.58;24.25;;;;;;;2.14;76.07;99852.95;4284238;81;21064;-83
2022/04/30 02:23:57;;;;;;;45.52;22.10;;;;;;;2.06;75.79;99853.63;4289121;81;21015;-83
2022/04/30 02:29:55;;;;;;;44.60;22.15;;;;;;;1.93;76.13;99839.58;4145966;84;21054;-84
2022/04/30 02:35:58;;;;;;;43.38;22.15;;;;;;;1.82;76.32;99834.11;4154261;84;21070;-85
2022/04/30 02:42:00;;;;;;;42.55;22.73;;;;;;;1.86;76.86;99835.91;3980145;84;32908;-84
2022/04/30 02:48:02;;;;;;;44.35;21.42;;;;;;;1.77;77.07;99837.67;3977584;87;21697;-84
2022/04/30 02:54:04;;;;;;;41.05;20.65;;;;;;;1.71;77.36;99820.55;3959617;87;21063;-83
2022/04/30 03:00:08;;;;;;;45.40;23.57;;;;;;;1.69;77.08;99828.94;3994869;87;22078;-84
2022/04/30 03:06:17;;;;;;;42.62;22.77;;;;;;;1.50;77.07;99811.42;3987438;88;21624;-84
2022/04/30 03:12:18;;;;;;;38.23;19.37;;;;;;;1.48;77.41;99822.27;3980236;87;21147;-84
2022/04/30 03:24:41;;;;;;;34.92;19.62;;;;;;;1.32;77.34;99820.37;3976459;87;21082;-84
2022/04/30 03:30:42;;;;;;;35.20;20.02;;;;;;;1.26;76.50;99827.48;3967003;87;21112;-84
2022/04/30 03:36:44;;;;;;;42.93;22.25;;;;;;;1.29;77.97;99832.28;4043005;87;21131;-85
2022/04/30 03:42:46;;;;;;;48.58;23.05;;;;;;;1.20;77.85;99829.47;4024869;86;21082;-84
2022/04/30 03:48:51;;;;;;;41.33;22.45;;;;;;;1.22;78.64;99831.31;4035930;86;21585;-84
2022/04/30 03:54:50;;;;;;;42.23;20.48;;;;;;;1.28;78.52;99822.06;4053041;86;21435;-84
2022/04/30 04:00:54;;;;;;;37.73;21.73;;;;;;;1.33;79.62;99827.92;4036725;87;21090;-84
2022/04/30 04:06:56;;;;;;;36.45;20.60;;;;;;;1.51;79.35;99818.98;4053441;86;21081;-84
2022/04/30 04:17:37;;;;;;;38.42;22.15;;;;;;;1.70;80.23;99822.43;4041740;87;21086;-85
2022/04/30 04:19:03;;;;;;;34.35;21.17;;;;;;;1.82;79.65;99824.66;4034706;86;21175;-84
2022/04/30 04:31:25;;;;;;;32.28;19.80;;;;;;;2.38;80.37;99830.60;4063879;85;21049;-84
2022/04/30 04:37:27;;;;;;;41.73;24.67;;;;;;;2.62;80.74;99829.81;4053939;86;21656;-84
2022/04/30 04:43:28;;;;;;;36.38;22.22;;;;;;;2.86;80.53;99831.73;4042854;86;21129;-84
2022/04/30 04:49:32;;;;;;;42.88;24.37;;;;;;;3.24;80.85;99831.68;4052361;86;21112;-84
2022/04/30 04:55:33;;;;;;;58.68;28.83;;;;;;;3.64;80.88;99836.64;4049098;86;21073;-84
2022/04/30 05:01:36;;;;;;;54.00;30.77;;;;;;;3.87;80.17;99830.11;4044372;85;21620;-85
2022/04/30 05:07:38;;;;;;;48.60;29.30;;;;;;;4.10;79.18;99828.37;4045003;86;21068;-86
2022/04/30 05:13:39;;;;;;;51.13;29.30;;;;;;;4.41;80.41;99828.34;4056809;85;21607;-84
2022/04/30 05:19:42;;;;;;;46.00;26.95;;;;;;;4.69;80.33;99827.80;4050186;86;21115;-84
2022/04/30 05:25:44;;;;;;;49.33;29.02;;;;;;;5.06;80.37;99833.75;3979066;87;21031;-85
2022/04/30 05:31:46;;;;;;;51.35;30.95;;;;;;;5.35;79.18;99825.76;3980887;87;21091;-85
2022/04/30 05:37:47;;;;;;;46.90;28.75;;;;;;;5.59;78.65;99816.56;4005349;87;21111;-84
2022/04/30 05:43:48;;;;;;;44.18;26.80;;;;;;;5.82;78.42;99825.58;3983822;87;21125;-85
2022/04/30 05:49:50;;;;;;;43.95;26.17;;;;;;;6.12;78.21;99810.91;3989346;87;21153;-85
2022/04/30 05:55:52;;;;;;;47.70;28.92;;;;;;;6.47;78.05;99819.72;3983577;88;21356;-85
2022/04/30 06:01:53;;;;;;;43.35;26.23;;;;;;;6.85;78.36;99819.10;3944527;87;22019;-85
2022/04/30 06:07:54;;;;;;;44.93;26.48;;;;;;;7.38;78.11;99818.37;4042541;86;21045;-84
2022/04/30 06:13:56;;;;;;;39.58;24.92;;;;;;;7.80;77.18;99814.43;4065959;86;22378;-85
2022/04/30 06:19:57;;;;;;;41.20;25.68;;;;;;;8.18;76.85;99826.44;4048688;86;21390;-85
2022/04/30 06:25:58;;;;;;;41.42;25.20;;;;;;;8.55;76.39;99817.20;4046042;85;21115;-85
2022/04/30 06:32:00;;;;;;;41.63;26.75;;;;;;;8.90;75.70;99820.45;4051385;86;21593;-86
2022/04/30 06:38:02;;;;;;;40.20;24.72;;;;;;;9.21;75.03;99817.88;4039747;86;21033;-86
2022/04/30 06:44:04;;;;;;;35.52;21.68;;;;;;;9.53;75.25;99820.17;4039405;86;21053;-86
2022/04/30 06:50:07;;;;;;;36.70;23.15;;;;;;;9.87;74.45;99817.37;4035902;86;21023;-85
2022/04/30 07:02:30;;;;;;;21.25;13.98;;;;;;;10.47;73.65;99810.17;4039438;86;21055;-85
2022/04/30 07:08:34;;;;;;;26.15;14.78;;;;;;;10.69;72.61;99807.59;4044384;87;21525;-85
2022/04/30 07:14:40;;;;;;;26.68;13.60;;;;;;;10.98;72.17;99809.82;3941947;88;21025;-85
2022/04/30 07:20:42;;;;;;;19.95;13.53;;;;;;;11.10;70.04;99804.80;4002798;87;21014;-85
2022/04/30 07:26:44;;;;;;;22.70;13.25;;;;;;;11.61;70.02;99808.99;4004588;87;21050;-85
2022/04/30 07:32:45;;;;;;;19.80;11.55;;;;;;;11.95;69.09;99805.96;4018163;87;21068;-85
2022/04/30 07:38:46;;;;;;;17.32;10.85;;;;;;;12.25;68.49;99807.67;4013113;87;21640;-84
2022/04/30 07:44:48;;;;;;;18.05;10.08;;;;;;;12.55;67.77;99800.91;4023813;86;21143;-85
2022/04/30 07:50:49;;;;;;;18.90;10.80;;;;;;;12.81;67.25;99793.27;4016184;86;21079;-84
2022/04/30 07:56:55;;;;;;;21.07;10.93;;;;;;;13.10;66.68;99793.89;4005160;86;21046;-85
2022/04/30 08:02:58;;;;;;;18.73;10.13;;;;;;;13.43;64.96;99796.12;4012881;87;21670;-84
2022/04/30 08:08:59;;;;;;;15.15;9.00;;;;;;;13.90;64.82;99789.38;4016637;87;21111;-85
2022/04/30 08:15:01;;;;;;;13.93;8.93;;;;;;;13.99;62.67;99785.73;4016779;86;21119;-85
2022/04/30 08:21:04;;;;;;;14.40;9.40;;;;;;;14.31;62.61;99786.06;4009711;87;21138;-87
2022/04/30 08:27:06;;;;;;;13.45;8.18;;;;;;;14.82;61.75;99783.28;4001087;87;21649;-84
2022/04/30 08:33:07;;;;;;;18.52;9.00;;;;;;;15.24;58.86;99789.03;4013476;87;21150;-85
2022/04/30 08:39:08;;;;;;;14.70;7.78;;;;;;;15.71;58.59;99793.63;4000582;87;21402;-85
2022/04/30 08:45:10;;;;;;;15.58;7.97;;;;;;;15.73;54.49;99796.17;4011135;86;21722;-84
2022/04/30 08:51:12;;;;;;;13.90;8.20;;;;;;;15.76;56.37;99783.55;4055645;86;21632;-85
2022/04/30 08:57:15;;;;;;;14.53;7.80;;;;;;;16.09;53.89;99786.00;4054952;86;21089;-84
2022/04/30 09:03:20;;;;;;;11.63;7.87;;;;;;;16.33;52.77;99787.42;4061049;86;21041;-85
2022/04/30 09:09:28;;;;;;;15.60;8.95;;;;;;;16.54;51.48;99774.20;4053924;86;21719;-84
2022/04/30 09:15:31;;;;;;;10.95;6.53;;;;;;;16.83;50.51;99768.27;4056278;86;21013;-85
2022/04/30 09:21:34;;;;;;;10.75;6.87;;;;;;;17.22;51.63;99752.94;4056806;86;21609;-83
2022/04/30 09:27:51;;;;;;;13.32;7.25;;;;;;;17.47;50.31;99750.09;4053668;86;21174;-84
2022/04/30 09:33:57;;;;;;;11.22;6.72;;;;;;;17.77;48.25;99748.95;4000374;86;21071;-85
2022/04/30 09:39:58;;;;;;;9.80;6.30;;;;;;;17.87;48.28;99744.73;4002218;87;21119;-85
2022/04/30 09:46:08;;;;;;;14.28;7.40;;;;;;;17.89;47.17;99736.81;4005626;87;21023;-84
2022/04/30 09:58:34;;;;;;;12.73;6.83;;;;;;;18.57;46.02;99722.64;4053825;86;21076;-84
2022/04/30 10:04:38;;;;;;;10.78;6.53;;;;;;;19.30;42.41;99717.48;4054525;86;21049;-84
2022/04/30 10:10:47;;;;;;;9.00;5.37;;;;;;;19.50;40.06;99709.48;4054991;86;21525;-83
2022/04/30 10:23:35;;;;;;;8.85;6.58;;;;;;;21.10;41.68;99688.34;3922696;86;21576;-84
2022/04/30 10:30:05;;;;;;;11.97;6.00;;;;;;;21.42;39.06;99695.44;4053974;86;21096;-84
2022/04/30 10:36:11;;;;;;;9.85;5.08;;;;;;;21.28;37.74;99683.97;3974140;86;21113;-84
2022/04/30 10:42:14;;;;;;;7.58;4.87;;;;;;;21.26;34.69;99670.31;3965708;88;21163;-84
2022/04/30 10:48:17;;;;;;;9.83;5.30;;;;;;;20.48;33.28;99678.59;3985562;87;21072;-83
2022/04/30 10:54:19;;;;;;;7.83;5.17;;;;;;;21.13;32.97;99667.99;3981573;87;21089;-84
2022/04/30 11:00:23;;;;;;;12.25;5.60;;;;;;;20.87;33.42;99661.95;3963802;88;21070;-84
2022/04/30 11:06:31;;;;;;;11.35;5.50;;;;;;;20.75;34.11;99653.62;3978490;88;21144;-84
2022/04/30 11:12:32;;;;;;;7.92;5.50;;;;;;;20.93;34.09;99651.28;3965896;87;20969;-84
2022/04/30 11:18:34;;;;;;;6.60;4.85;;;;;;;20.84;34.15;99646.91;3996513;88;21022;-84
2022/04/30 11:24:39;;;;;;;11.48;5.30;;;;;;;20.48;34.31;99650.78;3943645;88;21600;-83
2022/04/30 11:30:43;;;;;;;8.98;5.65;;;;;;;19.67;33.10;99647.97;4040738;86;21069;-84
2022/04/30 11:36:50;;;;;;;8.93;5.47;;;;;;;19.89;33.64;99637.47;4046382;86;21056;-85
2022/04/30 11:42:59;;;;;;;9.18;5.58;;;;;;;19.83;33.20;99631.42;4044174;85;21017;-84
2022/04/30 11:49:11;;;;;;;12.75;5.10;;;;;;;19.81;32.23;99626.28;4046278;86;21033;-86
2022/04/30 11:55:15;;;;;;;8.90;5.40;;;;;;;19.83;31.28;99628.05;3927682;88;21068;-84
2022/04/30 12:01:21;;;;;;;10.23;5.60;;;;;;;20.29;32.87;99618.16;4026926;86;21005;-84
2022/04/30 12:07:23;;;;;;;7.83;5.37;;;;;;;20.31;31.65;99617.14;4054413;85;21028;-85
2022/04/30 12:13:25;;;;;;;9.53;6.45;;;;;;;19.78;32.49;99602.13;4046840;86;21081;-83
2022/04/30 12:26:03;;;;;;;16.67;10.48;;;;;;;18.97;31.30;99590.62;4049267;86;21100;-84
2022/04/30 12:32:07;;;;;;;8.95;4.92;;;;;;;19.18;32.21;99596.69;4054895;86;21171;-84
2022/04/30 12:38:14;;;;;;;9.78;5.40;;;;;;;19.72;32.25;99587.16;3970637;88;21061;-84
2022/04/30 12:44:16;;;;;;;8.03;5.42;;;;;;;19.75;32.38;99581.34;3975969;88;21117;-83
2022/04/30 12:50:17;;;;;;;8.95;5.62;;;;;;;19.70;32.32;99579.84;3980518;88;21842;-83
2022/04/30 12:56:18;;;;;;;10.05;5.65;;;;;;;19.61;32.57;99579.59;3975857;88;21045;-83
2022/04/30 13:02:23;;;;;;;11.85;6.05;;;;;;;19.48;32.73;99574.44;3943047;88;22086;-85
2022/04/30 13:08:23;;;;;;;7.08;4.37;;;;;;;19.27;32.83;99574.74;4048221;86;21532;-83
2022/04/30 13:14:25;;;;;;;8.90;4.85;;;;;;;19.07;32.98;99575.23;4052702;86;21048;-83
2022/04/30 13:20:26;;;;;;;5.45;4.08;;;;;;;18.97;33.45;99569.81;4049499;86;21383;-82
2022/04/30 13:26:27;;;;;;;7.50;4.10;;;;;;;19.00;33.04;99562.83;4037393;86;21030;-83
2022/04/30 13:32:28;;;;;;;8.30;4.37;;;;;;;18.85;33.14;99549.58;4056488;85;21609;-82
2022/04/30 13:38:31;;;;;;;6.05;4.20;;;;;;;18.73;33.32;99546.16;4054573;86;21041;-82
2022/04/30 13:44:33;;;;;;;8.00;3.85;;;;;;;18.58;33.39;99545.36;4023414;87;21657;-84
2022/04/30 13:50:34;;;;;;;6.87;3.75;;;;;;;18.55;33.63;99536.49;3980275;87;21026;-83
2022/04/30 13:56:38;;;;;;;9.65;5.08;;;;;;;18.59;34.09;99539.41;4006716;87;21447;-82
2022/04/30 14:02:39;;;;;;;8.30;5.10;;;;;;;18.58;33.76;99535.66;4018053;87;21477;-84
2022/04/30 14:08:41;;;;;;;11.35;5.35;;;;;;;18.53;33.48;99533.34;4018860;87;21687;-82
2022/04/30 14:14:57;;;;;;;13.93;5.85;;;;;;;18.37;34.17;99526.97;4007746;87;21023;-82
2022/04/30 14:21:03;;;;;;;15.07;5.87;;;;;;;18.60;33.61;99516.63;4009731;87;21049;-82
2022/04/30 14:27:02;;;;;;;10.18;5.80;;;;;;;19.18;33.38;99512.64;4000204;87;21904;-86
2022/04/30 14:33:04;;;;;;;10.03;7.08;;;;;;;19.46;33.39;99506.66;4009975;87;21095;-84
2022/04/30 14:39:06;;;;;;;9.33;5.58;;;;;;;19.53;33.44;99506.56;4055503;86;21028;-85
2022/04/30 14:45:08;;;;;;;8.15;5.53;;;;;;;19.49;33.37;99501.65;4052482;86;21021;-85
2022/04/30 14:51:11;;;;;;;7.37;5.47;;;;;;;19.22;33.66;99498.09;4054317;86;21032;-84
2022/04/30 14:57:13;;;;;;;10.13;6.12;;;;;;;19.03;33.51;99502.34;4060689;86;21089;-85
2022/04/30 15:03:16;;;;;;;10.08;5.40;;;;;;;18.87;33.47;99508.34;4056292;86;21069;-84
2022/04/30 15:09:17;;;;;;;8.00;5.53;;;;;;;18.61;33.59;99502.94;4059830;86;21124;-84
2022/04/30 15:15:18;;;;;;;9.58;5.15;;;;;;;18.29;33.62;99494.98;4054742;86;21565;-84
2022/04/30 15:21:20;;;;;;;8.68;5.33;;;;;;;17.95;33.77;99496.17;4057172;86;21116;-84
2022/04/30 15:27:21;;;;;;;9.13;6.17;;;;;;;17.82;33.78;99488.98;4054695;86;21096;-85
2022/04/30 15:33:23;;;;;;;10.05;5.87;;;;;;;17.79;33.93;99490.42;4055251;86;21159;-85
2022/04/30 15:39:27;;;;;;;9.60;4.92;;;;;;;17.81;33.85;99494.34;4050073;86;21075;-85
2022/04/30 15:45:28;;;;;;;11.28;5.85;;;;;;;17.80;34.54;99484.48;4041199;86;21056;-85
2022/04/30 15:51:32;;;;;;;10.98;6.50;;;;;;;17.88;34.48;99484.59;4050261;85;21972;-85
2022/04/30 15:57:35;;;;;;;8.45;5.50;;;;;;;17.88;34.54;99481.03;3979476;87;21038;-84
2022/04/30 16:03:36;;;;;;;8.78;5.45;;;;;;;17.79;34.71;99475.96;3932247;88;21084;-85
2022/04/30 16:09:38;;;;;;;10.70;5.75;;;;;;;17.66;34.74;99476.90;4058240;86;21156;-84
2022/04/30 16:15:42;;;;;;;9.18;5.95;;;;;;;17.53;35.10;99472.47;4052758;85;21125;-84
2022/04/30 16:21:43;;;;;;;9.43;6.28;;;;;;;17.34;35.25;99469.47;4047961;86;21109;-85
2022/04/30 16:27:44;;;;;;;9.38;5.80;;;;;;;17.13;35.30;99469.80;3980527;87;21077;-85
2022/04/30 16:33:46;;;;;;;11.45;6.50;;;;;;;16.93;35.37;99464.62;3958108;87;21097;-85
2022/04/30 16:39:47;;;;;;;14.55;6.92;;;;;;;16.78;35.51;99472.04;3953496;88;21029;-85
2022/04/30 16:45:49;;;;;;;10.58;5.62;;;;;;;16.63;35.59;99466.41;3964344;88;21609;-85
2022/04/30 16:58:10;;;;;;;9.83;5.40;;;;;;;16.30;35.79;99471.85;4042019;86;21101;-84
2022/04/30 17:04:11;;;;;;;9.95;6.12;;;;;;;16.14;35.89;99473.51;4051654;86;20981;-85
2022/04/30 17:10:14;;;;;;;8.43;5.15;;;;;;;15.96;36.04;99461.75;3974926;87;21149;-83
2022/04/30 17:16:15;;;;;;;8.30;5.22;;;;;;;15.78;36.22;99462.38;3982680;87;21485;-86
2022/04/30 17:22:18;;;;;;;10.72;6.00;;;;;;;15.53;36.56;99467.34;3978743;87;21652;-84
2022/04/30 17:28:23;;;;;;;14.10;6.60;;;;;;;15.25;36.81;99474.22;3945786;88;21116;-83
2022/04/30 17:40:44;;;;;;;19.52;8.95;;;;;;;14.77;37.27;99488.16;4018079;87;21061;-83
2022/04/30 17:46:46;;;;;;;19.60;13.32;;;;;;;14.52;37.53;99485.17;3996933;87;21035;-83
2022/04/30 17:52:49;;;;;;;28.73;13.60;;;;;;;14.21;37.91;99483.83;4012264;88;20999;-84
2022/04/30 17:58:51;;;;;;;23.25;11.33;;;;;;;13.93;38.33;99490.57;4084612;86;21100;-84
2022/04/30 18:04:52;;;;;;;43.50;19.65;;;;;;;13.63;38.85;99490.79;3983835;88;21110;-83
2022/04/30 18:10:54;;;;;;;30.85;16.93;;;;;;;13.39;39.42;99497.49;3990044;88;21627;-83
2022/04/30 18:16:57;;;;;;;14.90;6.72;;;;;;;13.01;40.06;99497.37;4000707;88;21161;-84
2022/04/30 18:22:58;;;;;;;21.30;9.93;;;;;;;12.69;40.62;99500.34;4081644;86;21104;-83
2022/04/30 18:29:00;;;;;;;21.82;11.38;;;;;;;12.36;41.41;99508.02;3991576;88;22003;-85
2022/04/30 18:35:04;;;;;;;32.60;15.20;;;;;;;12.12;42.14;99515.34;3990079;87;21026;-83
2022/04/30 18:41:05;;;;;;;51.05;25.70;;;;;;;11.82;42.73;99513.77;3984968;88;21084;-83
2022/04/30 18:47:07;;;;;;;58.50;27.22;;;;;;;11.55;43.35;99514.88;3989458;88;21015;-83
2022/04/30 18:53:08;;;;;;;49.20;26.05;;;;;;;11.29;44.02;99519.75;4000121;88;22185;-84
2022/04/30 19:05:31;;;;;;;37.75;19.85;;;;;;;10.70;45.30;99536.72;4002506;88;21842;-82
2022/04/30 19:11:34;;;;;;;43.25;20.25;;;;;;;10.45;46.18;99536.81;3951633;88;21015;-83
2022/04/30 19:17:36;;;;;;;43.08;22.32;;;;;;;10.23;46.68;99532.62;3951532;86;10000006;-83
2022/04/30 19:23:37;;;;;;;36.15;20.32;;;;;;;10.06;47.20;99540.66;3978599;88;21088;-83
2022/04/30 19:29:39;;;;;;;50.00;21.05;;;;;;;9.80;47.84;99536.94;4071626;86;21055;-83
2022/04/30 19:35:40;;;;;;;52.17;23.12;;;;;;;9.58;48.47;99530.97;3984817;86;21026;-83
2022/04/30 19:41:42;;;;;;;48.48;23.87;;;;;;;9.41;48.39;99527.84;3986546;87;21020;-84
2022/04/30 19:47:43;;;;;;;43.98;23.55;;;;;;;9.21;49.53;99535.14;3989067;87;21052;-84
2022/04/30 19:53:45;;;;;;;43.87;24.82;;;;;;;9.03;50.39;99529.83;3983619;87;21010;-83
2022/04/30 19:59:46;;;;;;;43.58;23.22;;;;;;;8.83;50.59;99525.38;3971798;87;22015;-84
2022/04/30 20:05:48;;;;;;;49.75;28.57;;;;;;;8.75;51.98;99526.92;3963802;87;21095;-84
2022/04/30 20:18:11;;;;;;;52.25;28.52;;;;;;;8.45;52.58;99525.14;4058851;85;21128;-84
2022/04/30 20:24:14;;;;;;;53.58;29.82;;;;;;;8.34;53.25;99532.79;4045476;85;21593;-83
2022/04/30 20:30:15;;;;;;;54.98;31.55;;;;;;;8.20;53.59;99532.36;4057222;85;22084;-84
2022/04/30 20:42:37;;;;;;;72.12;33.15;;;;;;;7.96;54.26;99542.20;4059003;85;21065;-83
2022/04/30 20:48:39;;;;;;;62.43;34.43;;;;;;;7.77;53.95;99539.83;4044907;86;21048;-83
2022/04/30 20:54:42;;;;;;;70.37;38.50;;;;;;;7.63;55.74;99540.77;4049017;86;21041;-84
2022/04/30 21:00:43;;;;;;;72.60;40.80;;;;;;;7.44;55.91;99537.25;4045036;86;21022;-83
2022/04/30 21:06:44;;;;;;;68.25;36.60;;;;;;;7.25;56.12;99542.47;4048418;85;21565;-83
2022/04/30 21:12:46;;;;;;;76.85;42.90;;;;;;;7.14;56.99;99539.19;4056857;86;22143;-84
2022/04/30 21:18:47;;;;;;;81.35;41.95;;;;;;;7.00;57.37;99538.13;3989723;87;21129;-83
2022/04/30 21:24:48;;;;;;;65.12;35.15;;;;;;;6.89;57.51;99532.89;3986260;87;21094;-83
2022/04/30 21:30:51;;;;;;;60.95;33.83;;;;;;;6.77;58.64;99534.79;3990831;87;21039;-83
2022/04/30 21:36:52;;;;;;;70.97;37.70;;;;;;;6.90;59.38;99539.94;3984414;87;21052;-84
2022/04/30 21:42:53;;;;;;;59.70;33.85;;;;;;;6.68;58.65;99534.90;3993357;87;21582;-83
2022/04/30 21:48:55;;;;;;;55.33;29.95;;;;;;;6.46;59.74;99525.75;3995056;88;21061;-84
2022/04/30 22:01:21;;;;;;;68.00;33.55;;;;;;;6.66;60.65;99528.98;3988800;87;21043;-83
2022/04/30 22:07:22;;;;;;;65.57;33.05;;;;;;;6.35;60.54;99532.19;3983207;87;21143;-84
2022/04/30 22:13:37;;;;;;;111.88;52.30;;;;;;;6.04;60.97;99534.53;3972066;87;21733;-84
2022/04/30 22:19:39;;;;;;;75.70;37.50;;;;;;;5.89;61.31;99531.59;3964738;87;21079;-84
2022/04/30 22:25:42;;;;;;;87.90;41.15;;;;;;;5.79;62.43;99527.89;3977446;88;21715;-83
2022/04/30 22:31:43;;;;;;;84.97;42.17;;;;;;;5.82;62.89;99525.34;3980172;87;22118;-84
2022/04/30 22:37:45;;;;;;;70.45;38.65;;;;;;;5.60;62.93;99525.62;3968430;87;21119;-83
2022/04/30 22:43:46;;;;;;;64.75;34.98;;;;;;;5.45;63.36;99524.81;4055719;85;21132;-84
2022/04/30 22:49:48;;;;;;;59.53;32.75;;;;;;;5.38;63.83;99518.31;4053631;86;20985;-84
2022/04/30 22:55:50;;;;;;;69.42;36.35;;;;;;;5.51;64.57;99526.80;4055965;86;21419;-83
2022/04/30 23:01:51;;;;;;;64.40;34.18;;;;;;;5.31;64.85;99525.61;4057444;86;21032;-83
2022/04/30 23:07:52;;;;;;;82.27;42.98;;;;;;;5.41;65.57;99527.16;4019676;86;21003;-83
2022/04/30 23:13:54;;;;;;;96.70;46.65;;;;;;;5.36;65.16;99535.48;4013793;87;21043;-84
2022/04/30 23:19:55;;;;;;;80.70;41.25;;;;;;;5.22;64.94;99526.22;4017541;87;21932;-83
2022/04/30 23:25:57;;;;;;;102.58;46.85;;;;;;;4.97;65.43;99518.19;3999331;87;21958;-83
2022/04/30 23:31:59;;;;;;;94.70;41.18;;;;;;;4.74;65.76;99521.13;4022813;87;21050;-83
2022/04/30 23:38:01;;;;;;;102.17;45.12;;;;;;;4.65;66.56;99516.88;3994852;87;21073;-83
2022/04/30 23:44:04;;;;;;;95.00;43.42;;;;;;;4.63;66.71;99520.46;3990357;87;21029;-84
2022/04/30 23:50:07;;;;;;;89.35;40.78;;;;;;;4.54;67.16;99516.98;3986654;87;21029;-82
2022/04/30 23:56:08;;;;;;;95.20;41.77;;;;;;;4.42;67.52;99516.28;3973452;87;21039;-83
